Terminal Aerodrome Forecast
Issued by NWS

Home | Current Version | Previous Version | Graphics & Text | Print | Product List | Glossary On
Versions: 1 2 3 4 5 6 7 8 9 10 11
055
FTUS43 KICT 241120
TAFRSL
TAF
KRSL 241120Z 2412/2512 17017KT P6SM BKN250 WS015/20055KT
     FM241400 19028G40KT P6SM BKN250
     FM241800 20018G26KT P6SM SCT250
     FM250000 19010KT P6SM SCT200=

USA.gov is the U.S. government's official web portal to all federal, state and local government web resources and services.